Other Surface Observations
Issued by NWS Great Falls, MT

Home | Current Version | Previous Version | Text Only | Print | Product List | Glossary On
Versions: 1 2 3 4 5 6 7 8 9 10 11 12 13 14 15 16 17 18 19 20 21 22 23 24 25 26 27 28 29 30 31 32 33 34 35 36 37 38 39 40 41 42 43 44 45 46 47 48 49 50
611
SXUS55 KTFX 240144
OSOTFX
AREA AWOS OBSERVATIONS
NATIONAL WEATHER SERVICE GREAT FALLS MT
0744 PM MDT SUN APR 23 2017

METAR KPWD 240145Z AUTO 10017G20KT 10SM M01/M02 A2983 RMK PLENTYWOOD
METAR KPO1 240145Z AUTO 09014KT 7SM 01/M01 A2980 RMK POPLAR
METAR KS71 240145Z AUTO 09007KT 4SM 06/04 A2973 RMK CHINOOK
METAR K79S 240145Z AUTO 10SM 12/06 A2970 RMK FORT BENTON
METAR K38S 240145Z AUTO 32009KT 10SM 08/02 A2976 RMK DEER LODGE
METAR K3U3 240145Z AUTO 03004KT 10SM 09/M01 A2974 RMK ANACONDA
METAR K6S5 240145Z AUTO 24005KT 10SM 12/M01 A2975 RMK HAMILTON
METAR KS59 240145Z AUTO 05005KT 10SM 07/06 A2975 RMK LIBBY
METAR K88M 240145Z AUTO 29006KT 10SM 08/02 A2976 RMK EUREKA



USA.gov is the U.S. government's official web portal to all federal, state and local government web resources and services.